Lodge, South Carolina
Current Conditions -  °F | °C
As of 10:55 PM on Sunday 23 Nov 2014 (Local Time) from KAQX Reporting Station
Light Rain Light Rain  
Wind Chill: 68°   Ceiling: 6000
Heat Index: 68°   Visibility: 5mi
Dew Point: 66°   Wind: 8mph
Humidity: 94%   Direction: 190°S
Pressure: 29.81"   Gusts: 17mph
Location:  33.07°N, 80.95°W
Report Text: KAQX 240355Z AUTO 19007G15KT 5SM -RA FEW008 SCT037 BKN060 20/19 A2981 RMK AO2 LTG DSNT E-S
Loading
Personal Weather Stations






























Interactive Weather Map New forecast layout! Learn more

10-Day Weather Forecast

Advertisements
Track Severe Weather on mobile